sensor_id;sensor_type;location;lat;lon;timestamp;P1;durP1;ratioP1;P2;durP2;ratioP2
56581;SDS011;42463;52.214;21.238;2023-01-28T00:00:50;49.80;;;20.20;;
56581;SDS011;42463;52.214;21.238;2023-01-28T00:03:18;49.90;;;19.40;;
56581;SDS011;42463;52.214;21.238;2023-01-28T00:05:46;49.10;;;20.50;;
56581;SDS011;42463;52.214;21.238;2023-01-28T00:08:11;44.70;;;18.20;;
56581;SDS011;42463;52.214;21.238;2023-01-28T00:10:40;45.90;;;18.60;;
56581;SDS011;42463;52.214;21.238;2023-01-28T00:13:07;47.20;;;19.40;;
56581;SDS011;42463;52.214;21.238;2023-01-28T00:15:53;50.20;;;20.20;;
56581;SDS011;42463;52.214;21.238;2023-01-28T00:18:21;43.80;;;18.10;;
56581;SDS011;42463;52.214;21.238;2023-01-28T00:20:56;49.50;;;19.70;;
56581;SDS011;42463;52.214;21.238;2023-01-28T00:23:27;47.40;;;19.10;;
56581;SDS011;42463;52.214;21.238;2023-01-28T00:26:06;48.30;;;19.60;;
56581;SDS011;42463;52.214;21.238;2023-01-28T00:28:37;40.70;;;17.70;;
56581;SDS011;42463;52.214;21.238;2023-01-28T00:31:09;45.70;;;17.70;;
56581;SDS011;42463;52.214;21.238;2023-01-28T00:33:48;44.30;;;17.40;;
56581;SDS011;42463;52.214;21.238;2023-01-28T00:36:21;45.80;;;18.10;;
56581;SDS011;42463;52.214;21.238;2023-01-28T00:39:03;47.20;;;20.20;;
56581;SDS011;42463;52.214;21.238;2023-01-28T00:42:03;44.70;;;18.50;;
56581;SDS011;42463;52.214;21.238;2023-01-28T00:44:36;44.40;;;19.50;;
56581;SDS011;42463;52.214;21.238;2023-01-28T00:47:31;44.00;;;18.10;;
56581;SDS011;42463;52.214;21.238;2023-01-28T00:50:03;48.20;;;19.00;;
56581;SDS011;42463;52.214;21.238;2023-01-28T00:52:30;46.70;;;19.30;;
56581;SDS011;42463;52.214;21.238;2023-01-28T00:54:55;50.10;;;20.20;;
56581;SDS011;42463;52.214;21.238;2023-01-28T00:57:21;40.90;;;17.60;;
56581;SDS011;42463;52.214;21.238;2023-01-28T00:59:47;44.20;;;17.90;;
56581;SDS011;42463;52.214;21.238;2023-01-28T01:02:12;38.70;;;15.30;;
56581;SDS011;42463;52.214;21.238;2023-01-28T01:04:41;35.60;;;16.00;;
56581;SDS011;42463;52.214;21.238;2023-01-28T01:07:16;39.80;;;16.90;;
56581;SDS011;42463;52.214;21.238;2023-01-28T01:09:42;40.90;;;17.40;;
56581;SDS011;42463;52.214;21.238;2023-01-28T01:12:09;39.60;;;16.80;;
56581;SDS011;42463;52.214;21.238;2023-01-28T01:14:34;44.20;;;18.20;;
56581;SDS011;42463;52.214;21.238;2023-01-28T01:16:59;45.20;;;17.80;;
56581;SDS011;42463;52.214;21.238;2023-01-28T01:19:24;43.60;;;18.90;;
56581;SDS011;42463;52.214;21.238;2023-01-28T01:21:51;46.00;;;18.90;;
56581;SDS011;42463;52.214;21.238;2023-01-28T01:24:18;47.20;;;18.20;;
56581;SDS011;42463;52.214;21.238;2023-01-28T01:26:46;42.30;;;17.90;;
56581;SDS011;42463;52.214;21.238;2023-01-28T01:29:15;36.30;;;17.10;;
56581;SDS011;42463;52.214;21.238;2023-01-28T01:31:40;40.70;;;17.10;;
56581;SDS011;42463;52.214;21.238;2023-01-28T01:34:07;47.70;;;18.70;;
56581;SDS011;42463;52.214;21.238;2023-01-28T01:36:33;47.10;;;19.40;;
56581;SDS011;42463;52.214;21.238;2023-01-28T01:38:58;42.80;;;17.50;;
56581;SDS011;42463;52.214;21.238;2023-01-28T01:41:25;33.90;;;15.60;;
56581;SDS011;42463;52.214;21.238;2023-01-28T01:43:53;42.90;;;17.90;;
56581;SDS011;42463;52.214;21.238;2023-01-28T01:46:24;36.90;;;16.00;;
56581;SDS011;42463;52.214;21.238;2023-01-28T01:48:54;42.10;;;16.90;;
56581;SDS011;42463;52.214;21.238;2023-01-28T01:51:25;37.70;;;16.50;;
56581;SDS011;42463;52.214;21.238;2023-01-28T01:53:55;43.10;;;18.40;;
56581;SDS011;42463;52.214;21.238;2023-01-28T01:56:25;40.40;;;16.10;;
56581;SDS011;42463;52.214;21.238;2023-01-28T01:58:57;40.60;;;16.50;;
56581;SDS011;42463;52.214;21.238;2023-01-28T02:01:43;48.30;;;19.00;;
56581;SDS011;42463;52.214;21.238;2023-01-28T02:04:09;48.10;;;19.50;;
56581;SDS011;42463;52.214;21.238;2023-01-28T02:06:43;41.80;;;17.50;;
56581;SDS011;42463;52.214;21.238;2023-01-28T02:09:22;49.60;;;19.90;;
56581;SDS011;42463;52.214;21.238;2023-01-28T02:11:49;48.40;;;20.20;;
56581;SDS011;42463;52.214;21.238;2023-01-28T02:14:20;48.10;;;19.70;;
56581;SDS011;42463;52.214;21.238;2023-01-28T02:16:48;54.60;;;20.90;;
56581;SDS011;42463;52.214;21.238;2023-01-28T02:19:16;45.40;;;18.20;;
56581;SDS011;42463;52.214;21.238;2023-01-28T02:22:01;44.90;;;17.60;;
56581;SDS011;42463;52.214;21.238;2023-01-28T02:27:50;41.60;;;17.00;;
56581;SDS011;42463;52.214;21.238;2023-01-28T02:30:28;47.40;;;19.40;;
56581;SDS011;42463;52.214;21.238;2023-01-28T02:33:03;48.70;;;18.70;;
56581;SDS011;42463;52.214;21.238;2023-01-28T02:35:34;49.50;;;20.00;;
56581;SDS011;42463;52.214;21.238;2023-01-28T02:38:06;39.40;;;16.50;;
56581;SDS011;42463;52.214;21.238;2023-01-28T02:40:37;48.10;;;18.70;;
56581;SDS011;42463;52.214;21.238;2023-01-28T02:43:31;50.00;;;20.00;;
56581;SDS011;42463;52.214;21.238;2023-01-28T02:46:03;50.60;;;20.00;;
56581;SDS011;42463;52.214;21.238;2023-01-28T02:49:01;47.30;;;17.30;;
56581;SDS011;42463;52.214;21.238;2023-01-28T02:52:01;43.80;;;17.70;;
56581;SDS011;42463;52.214;21.238;2023-01-28T02:54:36;40.60;;;16.80;;
56581;SDS011;42463;52.214;21.238;2023-01-28T02:57:22;40.70;;;18.30;;
56581;SDS011;42463;52.214;21.238;2023-01-28T03:00:03;44.10;;;16.80;;
56581;SDS011;42463;52.214;21.238;2023-01-28T03:02:35;43.70;;;17.00;;
56581;SDS011;42463;52.214;21.238;2023-01-28T03:05:06;42.10;;;18.40;;
56581;SDS011;42463;52.214;21.238;2023-01-28T03:07:38;43.00;;;18.60;;
56581;SDS011;42463;52.214;21.238;2023-01-28T03:10:05;38.60;;;16.60;;
56581;SDS011;42463;52.214;21.238;2023-01-28T03:12:38;45.10;;;18.60;;
56581;SDS011;42463;52.214;21.238;2023-01-28T03:15:28;44.80;;;18.00;;
56581;SDS011;42463;52.214;21.238;2023-01-28T03:18:15;42.10;;;17.80;;
56581;SDS011;42463;52.214;21.238;2023-01-28T03:21:05;42.50;;;17.10;;
56581;SDS011;42463;52.214;21.238;2023-01-28T03:23:57;37.20;;;15.70;;
56581;SDS011;42463;52.214;21.238;2023-01-28T03:26:46;41.20;;;16.70;;
56581;SDS011;42463;52.214;21.238;2023-01-28T03:29:34;35.50;;;15.80;;
56581;SDS011;42463;52.214;21.238;2023-01-28T03:32:21;36.30;;;15.60;;
56581;SDS011;42463;52.214;21.238;2023-01-28T03:35:05;39.40;;;16.20;;
56581;SDS011;42463;52.214;21.238;2023-01-28T03:37:50;39.90;;;16.60;;
56581;SDS011;42463;52.214;21.238;2023-01-28T03:40:21;38.50;;;16.90;;
56581;SDS011;42463;52.214;21.238;2023-01-28T03:42:46;27.20;;;13.20;;
56581;SDS011;42463;52.214;21.238;2023-01-28T03:45:29;33.30;;;14.70;;
56581;SDS011;42463;52.214;21.238;2023-01-28T03:48:08;35.80;;;14.50;;
56581;SDS011;42463;52.214;21.238;2023-01-28T03:50:35;34.30;;;15.00;;
56581;SDS011;42463;52.214;21.238;2023-01-28T03:53:01;30.80;;;14.40;;
56581;SDS011;42463;52.214;21.238;2023-01-28T03:55:55;32.10;;;14.20;;
56581;SDS011;42463;52.214;21.238;2023-01-28T03:58:20;31.60;;;13.90;;
56581;SDS011;42463;52.214;21.238;2023-01-28T04:00:51;30.60;;;13.20;;
56581;SDS011;42463;52.214;21.238;2023-01-28T04:03:20;32.30;;;14.50;;
56581;SDS011;42463;52.214;21.238;2023-01-28T04:06:12;28.40;;;12.60;;
56581;SDS011;42463;52.214;21.238;2023-01-28T04:09:03;28.30;;;12.60;;
56581;SDS011;42463;52.214;21.238;2023-01-28T04:11:52;26.70;;;12.70;;
56581;SDS011;42463;52.214;21.238;2023-01-28T04:14:22;27.90;;;12.80;;
56581;SDS011;42463;52.214;21.238;2023-01-28T04:16:54;27.30;;;12.40;;
56581;SDS011;42463;52.214;21.238;2023-01-28T04:19:21;27.00;;;13.10;;
56581;SDS011;42463;52.214;21.238;2023-01-28T04:21:47;31.20;;;14.60;;
56581;SDS011;42463;52.214;21.238;2023-01-28T04:24:15;23.90;;;11.30;;
56581;SDS011;42463;52.214;21.238;2023-01-28T04:26:41;26.10;;;11.90;;
56581;SDS011;42463;52.214;21.238;2023-01-28T04:29:10;26.40;;;12.90;;
56581;SDS011;42463;52.214;21.238;2023-01-28T04:31:35;26.30;;;12.80;;
56581;SDS011;42463;52.214;21.238;2023-01-28T04:34:36;30.20;;;13.50;;
56581;SDS011;42463;52.214;21.238;2023-01-28T04:37:30;27.90;;;12.60;;
56581;SDS011;42463;52.214;21.238;2023-01-28T04:40:21;27.90;;;12.50;;
56581;SDS011;42463;52.214;21.238;2023-01-28T04:42:53;22.70;;;11.70;;
56581;SDS011;42463;52.214;21.238;2023-01-28T04:45:46;29.20;;;12.20;;
56581;SDS011;42463;52.214;21.238;2023-01-28T04:48:32;27.00;;;12.70;;
56581;SDS011;42463;52.214;21.238;2023-01-28T04:51:16;27.10;;;12.40;;
56581;SDS011;42463;52.214;21.238;2023-01-28T04:54:02;27.30;;;13.30;;
56581;SDS011;42463;52.214;21.238;2023-01-28T04:56:30;25.80;;;12.80;;
56581;SDS011;42463;52.214;21.238;2023-01-28T04:58:57;28.10;;;14.60;;
56581;SDS011;42463;52.214;21.238;2023-01-28T05:01:23;31.20;;;13.50;;
56581;SDS011;42463;52.214;21.238;2023-01-28T05:03:48;27.90;;;12.50;;
56581;SDS011;42463;52.214;21.238;2023-01-28T05:06:18;24.90;;;12.30;;
56581;SDS011;42463;52.214;21.238;2023-01-28T05:08:46;26.80;;;11.80;;
56581;SDS011;42463;52.214;21.238;2023-01-28T05:11:13;26.60;;;12.70;;
56581;SDS011;42463;52.214;21.238;2023-01-28T05:13:39;24.30;;;10.90;;
56581;SDS011;42463;52.214;21.238;2023-01-28T05:16:06;28.30;;;13.90;;
56581;SDS011;42463;52.214;21.238;2023-01-28T05:18:32;27.70;;;13.40;;
56581;SDS011;42463;52.214;21.238;2023-01-28T05:21:05;23.90;;;11.20;;
56581;SDS011;42463;52.214;21.238;2023-01-28T05:23:33;21.70;;;11.10;;
56581;SDS011;42463;52.214;21.238;2023-01-28T05:25:58;26.60;;;12.10;;
56581;SDS011;42463;52.214;21.238;2023-01-28T05:28:26;25.70;;;11.40;;
56581;SDS011;42463;52.214;21.238;2023-01-28T05:30:53;24.60;;;11.40;;
56581;SDS011;42463;52.214;21.238;2023-01-28T05:33:19;24.60;;;11.70;;
56581;SDS011;42463;52.214;21.238;2023-01-28T05:35:47;24.10;;;10.90;;
56581;SDS011;42463;52.214;21.238;2023-01-28T05:38:14;26.10;;;13.60;;
56581;SDS011;42463;52.214;21.238;2023-01-28T05:40:43;24.30;;;11.30;;
56581;SDS011;42463;52.214;21.238;2023-01-28T05:43:10;26.30;;;11.90;;
56581;SDS011;42463;52.214;21.238;2023-01-28T05:45:58;25.10;;;11.80;;
56581;SDS011;42463;52.214;21.238;2023-01-28T05:48:28;22.70;;;10.60;;
56581;SDS011;42463;52.214;21.238;2023-01-28T05:51:23;20.90;;;9.40;;
56581;SDS011;42463;52.214;21.238;2023-01-28T05:53:52;26.90;;;11.40;;
56581;SDS011;42463;52.214;21.238;2023-01-28T05:56:27;26.40;;;12.10;;
56581;SDS011;42463;52.214;21.238;2023-01-28T05:58:54;26.10;;;11.70;;
56581;SDS011;42463;52.214;21.238;2023-01-28T06:01:19;25.60;;;11.50;;
56581;SDS011;42463;52.214;21.238;2023-01-28T06:03:55;22.70;;;11.90;;
56581;SDS011;42463;52.214;21.238;2023-01-28T06:06:27;25.20;;;11.30;;
56581;SDS011;42463;52.214;21.238;2023-01-28T06:08:54;20.80;;;9.60;;
56581;SDS011;42463;52.214;21.238;2023-01-28T06:11:23;23.70;;;11.00;;
56581;SDS011;42463;52.214;21.238;2023-01-28T06:13:52;27.00;;;11.90;;
56581;SDS011;42463;52.214;21.238;2023-01-28T06:16:22;25.20;;;11.20;;
56581;SDS011;42463;52.214;21.238;2023-01-28T06:18:55;27.30;;;11.60;;
56581;SDS011;42463;52.214;21.238;2023-01-28T06:21:19;30.90;;;11.80;;
56581;SDS011;42463;52.214;21.238;2023-01-28T06:23:45;28.30;;;12.20;;
56581;SDS011;42463;52.214;21.238;2023-01-28T06:26:10;29.80;;;13.40;;
56581;SDS011;42463;52.214;21.238;2023-01-28T06:28:41;31.80;;;13.00;;
56581;SDS011;42463;52.214;21.238;2023-01-28T06:31:16;30.50;;;13.00;;
56581;SDS011;42463;52.214;21.238;2023-01-28T06:33:42;29.70;;;12.20;;
56581;SDS011;42463;52.214;21.238;2023-01-28T06:36:12;28.40;;;12.30;;
56581;SDS011;42463;52.214;21.238;2023-01-28T06:38:40;29.90;;;11.30;;
56581;SDS011;42463;52.214;21.238;2023-01-28T06:41:06;33.40;;;13.10;;
56581;SDS011;42463;52.214;21.238;2023-01-28T06:43:33;30.20;;;12.60;;
56581;SDS011;42463;52.214;21.238;2023-01-28T06:45:58;35.20;;;12.70;;
56581;SDS011;42463;52.214;21.238;2023-01-28T06:48:24;32.10;;;11.80;;
56581;SDS011;42463;52.214;21.238;2023-01-28T06:50:50;33.20;;;12.50;;
56581;SDS011;42463;52.214;21.238;2023-01-28T06:53:17;37.00;;;13.90;;
56581;SDS011;42463;52.214;21.238;2023-01-28T06:55:52;34.10;;;13.00;;
56581;SDS011;42463;52.214;21.238;2023-01-28T06:58:20;34.80;;;13.10;;
56581;SDS011;42463;52.214;21.238;2023-01-28T07:00:45;38.00;;;13.80;;
56581;SDS011;42463;52.214;21.238;2023-01-28T07:03:10;34.20;;;12.70;;
56581;SDS011;42463;52.214;21.238;2023-01-28T07:05:35;32.40;;;12.00;;
56581;SDS011;42463;52.214;21.238;2023-01-28T07:08:06;36.60;;;13.60;;
56581;SDS011;42463;52.214;21.238;2023-01-28T07:10:32;31.90;;;11.90;;
56581;SDS011;42463;52.214;21.238;2023-01-28T07:12:58;37.70;;;13.50;;
56581;SDS011;42463;52.214;21.238;2023-01-28T07:15:29;30.20;;;12.20;;
56581;SDS011;42463;52.214;21.238;2023-01-28T07:17:53;29.50;;;11.10;;
56581;SDS011;42463;52.214;21.238;2023-01-28T07:20:19;30.80;;;12.20;;
56581;SDS011;42463;52.214;21.238;2023-01-28T07:22:44;29.10;;;11.70;;
56581;SDS011;42463;52.214;21.238;2023-01-28T07:25:09;31.00;;;12.00;;
56581;SDS011;42463;52.214;21.238;2023-01-28T07:27:36;27.80;;;11.60;;
56581;SDS011;42463;52.214;21.238;2023-01-28T07:30:02;31.40;;;12.20;;
56581;SDS011;42463;52.214;21.238;2023-01-28T07:32:28;32.10;;;13.50;;
56581;SDS011;42463;52.214;21.238;2023-01-28T07:34:53;29.50;;;11.10;;
56581;SDS011;42463;52.214;21.238;2023-01-28T07:37:18;28.00;;;11.50;;
56581;SDS011;42463;52.214;21.238;2023-01-28T07:39:43;31.90;;;11.90;;
56581;SDS011;42463;52.214;21.238;2023-01-28T07:42:14;26.70;;;10.70;;
56581;SDS011;42463;52.214;21.238;2023-01-28T07:44:43;27.50;;;11.30;;
56581;SDS011;42463;52.214;21.238;2023-01-28T07:47:08;27.70;;;11.30;;
56581;SDS011;42463;52.214;21.238;2023-01-28T07:49:34;22.90;;;10.30;;
56581;SDS011;42463;52.214;21.238;2023-01-28T07:52:01;30.00;;;12.00;;
56581;SDS011;42463;52.214;21.238;2023-01-28T07:54:26;27.20;;;11.40;;
56581;SDS011;42463;52.214;21.238;2023-01-28T07:56:52;25.40;;;10.60;;
56581;SDS011;42463;52.214;21.238;2023-01-28T07:59:17;28.00;;;12.00;;
56581;SDS011;42463;52.214;21.238;2023-01-28T08:01:42;29.70;;;11.60;;
56581;SDS011;42463;52.214;21.238;2023-01-28T08:04:07;29.60;;;12.10;;
56581;SDS011;42463;52.214;21.238;2023-01-28T08:06:32;30.20;;;11.70;;
56581;SDS011;42463;52.214;21.238;2023-01-28T08:08:59;29.10;;;12.20;;
56581;SDS011;42463;52.214;21.238;2023-01-28T08:11:27;29.50;;;12.00;;
56581;SDS011;42463;52.214;21.238;2023-01-28T08:13:51;30.60;;;12.10;;
56581;SDS011;42463;52.214;21.238;2023-01-28T08:16:17;26.20;;;11.30;;
56581;SDS011;42463;52.214;21.238;2023-01-28T08:18:42;28.80;;;12.20;;
56581;SDS011;42463;52.214;21.238;2023-01-28T08:21:07;23.20;;;10.60;;
56581;SDS011;42463;52.214;21.238;2023-01-28T08:23:32;31.70;;;12.50;;
56581;SDS011;42463;52.214;21.238;2023-01-28T08:25:58;23.70;;;10.60;;
56581;SDS011;42463;52.214;21.238;2023-01-28T08:28:24;21.50;;;10.10;;
56581;SDS011;42463;52.214;21.238;2023-01-28T08:30:59;25.60;;;10.30;;
56581;SDS011;42463;52.214;21.238;2023-01-28T08:33:25;33.00;;;13.80;;
56581;SDS011;42463;52.214;21.238;2023-01-28T08:35:59;23.80;;;10.70;;
56581;SDS011;42463;52.214;21.238;2023-01-28T08:38:30;24.80;;;11.40;;
56581;SDS011;42463;52.214;21.238;2023-01-28T08:40:58;28.70;;;11.70;;
56581;SDS011;42463;52.214;21.238;2023-01-28T08:43:23;26.20;;;11.70;;
56581;SDS011;42463;52.214;21.238;2023-01-28T08:45:49;27.10;;;11.60;;
56581;SDS011;42463;52.214;21.238;2023-01-28T08:48:17;24.40;;;10.90;;
56581;SDS011;42463;52.214;21.238;2023-01-28T08:50:44;27.50;;;11.90;;
56581;SDS011;42463;52.214;21.238;2023-01-28T08:53:12;31.10;;;12.30;;
56581;SDS011;42463;52.214;21.238;2023-01-28T08:55:44;25.00;;;10.80;;
56581;SDS011;42463;52.214;21.238;2023-01-28T08:58:15;28.40;;;10.60;;
56581;SDS011;42463;52.214;21.238;2023-01-28T09:00:44;28.20;;;11.30;;
56581;SDS011;42463;52.214;21.238;2023-01-28T09:03:17;28.20;;;12.80;;
56581;SDS011;42463;52.214;21.238;2023-01-28T09:05:47;28.50;;;11.40;;
56581;SDS011;42463;52.214;21.238;2023-01-28T09:08:20;28.20;;;11.90;;
56581;SDS011;42463;52.214;21.238;2023-01-28T09:11:00;24.30;;;10.90;;
56581;SDS011;42463;52.214;21.238;2023-01-28T09:13:39;27.70;;;11.60;;
56581;SDS011;42463;52.214;21.238;2023-01-28T09:16:17;26.70;;;11.20;;
56581;SDS011;42463;52.214;21.238;2023-01-28T09:18:51;29.20;;;12.00;;
56581;SDS011;42463;52.214;21.238;2023-01-28T09:21:28;25.90;;;11.40;;
56581;SDS011;42463;52.214;21.238;2023-01-28T09:23:56;28.50;;;12.50;;
56581;SDS011;42463;52.214;21.238;2023-01-28T09:26:41;30.10;;;13.30;;
56581;SDS011;42463;52.214;21.238;2023-01-28T09:29:16;30.50;;;14.20;;
56581;SDS011;42463;52.214;21.238;2023-01-28T09:31:53;33.50;;;15.70;;
56581;SDS011;42463;52.214;21.238;2023-01-28T09:34:33;33.60;;;15.40;;
56581;SDS011;42463;52.214;21.238;2023-01-28T09:37:17;31.80;;;14.60;;
56581;SDS011;42463;52.214;21.238;2023-01-28T09:39:44;27.60;;;14.00;;
56581;SDS011;42463;52.214;21.238;2023-01-28T09:42:29;27.00;;;11.80;;
56581;SDS011;42463;52.214;21.238;2023-01-28T09:45:27;28.10;;;12.50;;
56581;SDS011;42463;52.214;21.238;2023-01-28T09:48:39;26.70;;;12.30;;
56581;SDS011;42463;52.214;21.238;2023-01-28T09:51:21;22.40;;;11.50;;
56581;SDS011;42463;52.214;21.238;2023-01-28T09:53:56;27.00;;;11.40;;
56581;SDS011;42463;52.214;21.238;2023-01-28T09:56:38;27.90;;;12.60;;
56581;SDS011;42463;52.214;21.238;2023-01-28T09:59:14;29.80;;;14.00;;
56581;SDS011;42463;52.214;21.238;2023-01-28T10:01:58;29.90;;;12.50;;
56581;SDS011;42463;52.214;21.238;2023-01-28T10:04:50;24.20;;;10.80;;
56581;SDS011;42463;52.214;21.238;2023-01-28T10:07:25;21.10;;;11.30;;
56581;SDS011;42463;52.214;21.238;2023-01-28T10:10:03;25.80;;;11.60;;
56581;SDS011;42463;52.214;21.238;2023-01-28T10:12:43;21.70;;;11.10;;
56581;SDS011;42463;52.214;21.238;2023-01-28T10:15:30;23.60;;;11.50;;
56581;SDS011;42463;52.214;21.238;2023-01-28T10:18:17;23.90;;;11.80;;
56581;SDS011;42463;52.214;21.238;2023-01-28T10:20:50;26.30;;;12.20;;
56581;SDS011;42463;52.214;21.238;2023-01-28T10:23:19;22.90;;;11.40;;
56581;SDS011;42463;52.214;21.238;2023-01-28T10:25:48;23.00;;;11.40;;
56581;SDS011;42463;52.214;21.238;2023-01-28T10:28:17;22.80;;;11.70;;
56581;SDS011;42463;52.214;21.238;2023-01-28T10:30:50;23.00;;;13.00;;
56581;SDS011;42463;52.214;21.238;2023-01-28T10:36:30;23.40;;;12.50;;
56581;SDS011;42463;52.214;21.238;2023-01-28T10:39:14;21.00;;;11.30;;
56581;SDS011;42463;52.214;21.238;2023-01-28T10:42:07;21.90;;;11.40;;
56581;SDS011;42463;52.214;21.238;2023-01-28T10:44:42;22.60;;;12.90;;
56581;SDS011;42463;52.214;21.238;2023-01-28T10:47:10;27.70;;;14.90;;
56581;SDS011;42463;52.214;21.238;2023-01-28T10:49:45;25.20;;;14.50;;
56581;SDS011;42463;52.214;21.238;2023-01-28T10:52:15;25.80;;;13.80;;
56581;SDS011;42463;52.214;21.238;2023-01-28T10:54:42;24.50;;;12.90;;
56581;SDS011;42463;52.214;21.238;2023-01-28T10:57:10;22.10;;;11.90;;
56581;SDS011;42463;52.214;21.238;2023-01-28T10:59:44;21.50;;;11.70;;
56581;SDS011;42463;52.214;21.238;2023-01-28T11:02:24;24.20;;;12.40;;
56581;SDS011;42463;52.214;21.238;2023-01-28T11:05:01;23.30;;;11.90;;
56581;SDS011;42463;52.214;21.238;2023-01-28T11:07:29;25.90;;;14.00;;
56581;SDS011;42463;52.214;21.238;2023-01-28T11:09:56;23.70;;;12.30;;
56581;SDS011;42463;52.214;21.238;2023-01-28T11:12:29;30.00;;;14.10;;
56581;SDS011;42463;52.214;21.238;2023-01-28T11:14:55;26.40;;;13.90;;
56581;SDS011;42463;52.214;21.238;2023-01-28T11:17:24;24.20;;;12.70;;
56581;SDS011;42463;52.214;21.238;2023-01-28T11:19:52;25.00;;;12.80;;
56581;SDS011;42463;52.214;21.238;2023-01-28T11:25:12;25.80;;;12.00;;
56581;SDS011;42463;52.214;21.238;2023-01-28T11:27:46;26.40;;;13.30;;
56581;SDS011;42463;52.214;21.238;2023-01-28T11:30:21;23.60;;;12.00;;
56581;SDS011;42463;52.214;21.238;2023-01-28T11:33:04;24.30;;;12.40;;
56581;SDS011;42463;52.214;21.238;2023-01-28T11:36:04;24.10;;;11.60;;
56581;SDS011;42463;52.214;21.238;2023-01-28T11:38:45;23.70;;;11.50;;
56581;SDS011;42463;52.214;21.238;2023-01-28T11:41:24;26.10;;;12.40;;
56581;SDS011;42463;52.214;21.238;2023-01-28T11:44:10;25.70;;;11.90;;
56581;SDS011;42463;52.214;21.238;2023-01-28T11:46:44;21.00;;;10.80;;
56581;SDS011;42463;52.214;21.238;2023-01-28T11:49:23;22.80;;;12.30;;
56581;SDS011;42463;52.214;21.238;2023-01-28T11:51:59;20.60;;;10.40;;
56581;SDS011;42463;52.214;21.238;2023-01-28T11:54:52;22.90;;;11.10;;
56581;SDS011;42463;52.214;21.238;2023-01-28T11:57:43;19.00;;;10.00;;
56581;SDS011;42463;52.214;21.238;2023-01-28T12:00:24;22.10;;;10.80;;
56581;SDS011;42463;52.214;21.238;2023-01-28T12:02:57;22.20;;;11.10;;
56581;SDS011;42463;52.214;21.238;2023-01-28T12:05:46;21.50;;;10.70;;
56581;SDS011;42463;52.214;21.238;2023-01-28T12:08:21;21.20;;;11.30;;
56581;SDS011;42463;52.214;21.238;2023-01-28T12:10:55;19.30;;;10.00;;
56581;SDS011;42463;52.214;21.238;2023-01-28T12:13:41;19.50;;;9.50;;
56581;SDS011;42463;52.214;21.238;2023-01-28T12:16:24;18.30;;;9.60;;
56581;SDS011;42463;52.214;21.238;2023-01-28T12:19:13;19.10;;;10.30;;
56581;SDS011;42463;52.214;21.238;2023-01-28T12:21:56;15.20;;;8.50;;
56581;SDS011;42463;52.214;21.238;2023-01-28T12:24:39;21.80;;;10.20;;
56581;SDS011;42463;52.214;21.238;2023-01-28T12:27:17;21.20;;;10.40;;
56581;SDS011;42463;52.214;21.238;2023-01-28T12:29:54;18.50;;;10.40;;
56581;SDS011;42463;52.214;21.238;2023-01-28T12:32:34;20.40;;;10.40;;
56581;SDS011;42463;52.214;21.238;2023-01-28T12:35:23;21.90;;;11.40;;
56581;SDS011;42463;52.214;21.238;2023-01-28T12:38:10;17.30;;;9.00;;
56581;SDS011;42463;52.214;21.238;2023-01-28T12:40:52;21.00;;;11.60;;
56581;SDS011;42463;52.214;21.238;2023-01-28T12:43:28;22.00;;;10.90;;
56581;SDS011;42463;52.214;21.238;2023-01-28T12:46:10;19.60;;;10.50;;
56581;SDS011;42463;52.214;21.238;2023-01-28T12:48:42;24.40;;;12.20;;
56581;SDS011;42463;52.214;21.238;2023-01-28T12:51:22;27.80;;;13.20;;
56581;SDS011;42463;52.214;21.238;2023-01-28T12:54:28;25.90;;;13.40;;
56581;SDS011;42463;52.214;21.238;2023-01-28T12:57:10;24.40;;;12.20;;
56581;SDS011;42463;52.214;21.238;2023-01-28T12:59:44;26.80;;;12.50;;
56581;SDS011;42463;52.214;21.238;2023-01-28T13:02:22;24.80;;;10.80;;
56581;SDS011;42463;52.214;21.238;2023-01-28T13:04:55;22.70;;;12.30;;
56581;SDS011;42463;52.214;21.238;2023-01-28T13:10:02;24.40;;;12.10;;
56581;SDS011;42463;52.214;21.238;2023-01-28T13:12:34;24.40;;;12.40;;
56581;SDS011;42463;52.214;21.238;2023-01-28T13:15:04;28.10;;;13.80;;
56581;SDS011;42463;52.214;21.238;2023-01-28T13:17:51;22.20;;;12.20;;
56581;SDS011;42463;52.214;21.238;2023-01-28T13:20:37;23.10;;;11.90;;
56581;SDS011;42463;52.214;21.238;2023-01-28T13:23:22;28.40;;;12.90;;
56581;SDS011;42463;52.214;21.238;2023-01-28T13:25:53;23.90;;;12.10;;
56581;SDS011;42463;52.214;21.238;2023-01-28T13:28:27;27.20;;;14.10;;
56581;SDS011;42463;52.214;21.238;2023-01-28T13:31:03;24.40;;;12.70;;
56581;SDS011;42463;52.214;21.238;2023-01-28T13:33:33;24.50;;;12.60;;
56581;SDS011;42463;52.214;21.238;2023-01-28T13:36:05;25.00;;;13.10;;
56581;SDS011;42463;52.214;21.238;2023-01-28T13:39:01;28.40;;;15.30;;
56581;SDS011;42463;52.214;21.238;2023-01-28T13:41:41;26.60;;;13.50;;
56581;SDS011;42463;52.214;21.238;2023-01-28T13:44:25;26.80;;;13.90;;
56581;SDS011;42463;52.214;21.238;2023-01-28T13:46:59;29.00;;;14.20;;
56581;SDS011;42463;52.214;21.238;2023-01-28T13:49:40;26.40;;;13.40;;
56581;SDS011;42463;52.214;21.238;2023-01-28T13:52:12;26.10;;;13.00;;
56581;SDS011;42463;52.214;21.238;2023-01-28T13:54:50;23.80;;;13.80;;
56581;SDS011;42463;52.214;21.238;2023-01-28T13:57:31;27.80;;;14.00;;
56581;SDS011;42463;52.214;21.238;2023-01-28T14:00:45;24.60;;;12.40;;
56581;SDS011;42463;52.214;21.238;2023-01-28T14:03:34;27.40;;;14.90;;
56581;SDS011;42463;52.214;21.238;2023-01-28T14:06:33;28.70;;;14.40;;
56581;SDS011;42463;52.214;21.238;2023-01-28T14:12:51;28.80;;;13.80;;
56581;SDS011;42463;52.214;21.238;2023-01-28T14:15:49;25.20;;;13.50;;
56581;SDS011;42463;52.214;21.238;2023-01-28T14:18:31;27.40;;;13.60;;
56581;SDS011;42463;52.214;21.238;2023-01-28T14:21:07;26.60;;;14.60;;
56581;SDS011;42463;52.214;21.238;2023-01-28T14:23:44;29.10;;;14.90;;
56581;SDS011;42463;52.214;21.238;2023-01-28T14:31:35;26.80;;;14.50;;
56581;SDS011;42463;52.214;21.238;2023-01-28T14:34:14;29.50;;;14.70;;
56581;SDS011;42463;52.214;21.238;2023-01-28T14:36:54;29.20;;;14.40;;
56581;SDS011;42463;52.214;21.238;2023-01-28T14:39:24;30.30;;;15.60;;
56581;SDS011;42463;52.214;21.238;2023-01-28T14:41:52;36.80;;;17.70;;
56581;SDS011;42463;52.214;21.238;2023-01-28T14:44:37;30.20;;;14.90;;
56581;SDS011;42463;52.214;21.238;2023-01-28T14:50:18;29.80;;;15.50;;
56581;SDS011;42463;52.214;21.238;2023-01-28T14:58:22;29.20;;;14.90;;
56581;SDS011;42463;52.214;21.238;2023-01-28T15:00:54;29.80;;;14.70;;
56581;SDS011;42463;52.214;21.238;2023-01-28T15:03:21;27.10;;;14.70;;
56581;SDS011;42463;52.214;21.238;2023-01-28T15:05:48;31.20;;;15.20;;
56581;SDS011;42463;52.214;21.238;2023-01-28T15:08:25;31.30;;;14.30;;
56581;SDS011;42463;52.214;21.238;2023-01-28T15:10:53;29.40;;;14.80;;
56581;SDS011;42463;52.214;21.238;2023-01-28T15:13:28;31.60;;;15.40;;
56581;SDS011;42463;52.214;21.238;2023-01-28T15:15:57;31.70;;;16.30;;
56581;SDS011;42463;52.214;21.238;2023-01-28T15:18:25;28.50;;;16.00;;